メインページ
METAR-TAF:

METAR-TAF

空港 :

チューク国際空港

Weno, ミクロネシア

緯度: 07-28N, 経度: 151-51E, 海抜: 3m

現時点の気象観測

当レポートは26分前の09:50(UTC)に作成
変向風 3kt
気温 26°C
湿度 89%
気圧 1010 hPa
視程: 24.1km
高度1400ftの雲はほとんどない
高度12000ftの千切れ雲あり
高度28000ftの曇り

METAR: PTKK 180950Z VRB03KT 15SM FEW014 BKN120 OVC280 26/24 A2983 RMK SLP103 T02620235

時間: 20:16 (10:16 UTC)

予報

当レポートは4時間56分前の05:20(UTC)に作成
予報は18日の 06時(UTC)から 19日の 06時(UTC)まで有効
変向風 5kt
視程: 10km
高度1300ftの雲は散在している
高度12000ftの千切れ雲あり
近辺でにわか雨

TAF: PTKK 180520Z 1806/1906 VRB05KT P6SM VCSH SCT013 BKN120

4,000以上の空港の気象観測と天気予報(METAR報とTAF報)

利用可能な観測所は地図上に黄色い丸と赤い丸で示す。

丸の上にカーソルを重ねると観測所名を参照できる。

次にクリックすると気象観測と天気予報を参照できる。

マップの切り替え:黒色「×」印の緑ボタンをクリックして拡大、「-」印の緑ボタンをクリックして縮小、緑色の三角印をクリックして隣りの地図に切り替え


METAR-TAF: